sensor_id;sensor_type;location;lat;lon;timestamp;temperature;humidity
22623;DHT22;11478;51.094;7.030;2022-09-13T00:01:12;14.00;99.90
22623;DHT22;11478;51.094;7.030;2022-09-13T00:03:38;14.10;99.90
22623;DHT22;11478;51.094;7.030;2022-09-13T00:06:12;14.10;99.90
22623;DHT22;11478;51.094;7.030;2022-09-13T00:08:39;14.10;99.90
22623;DHT22;11478;51.094;7.030;2022-09-13T00:11:07;14.00;99.90
22623;DHT22;11478;51.094;7.030;2022-09-13T00:13:49;14.00;99.90
22623;DHT22;11478;51.094;7.030;2022-09-13T00:16:18;14.00;99.90
22623;DHT22;11478;51.094;7.030;2022-09-13T00:18:47;14.10;99.90
22623;DHT22;11478;51.094;7.030;2022-09-13T00:21:23;14.00;99.90
22623;DHT22;11478;51.094;7.030;2022-09-13T00:23:51;14.00;99.90
22623;DHT22;11478;51.094;7.030;2022-09-13T00:26:27;14.00;99.90
22623;DHT22;11478;51.094;7.030;2022-09-13T00:29:05;14.00;99.90
22623;DHT22;11478;51.094;7.030;2022-09-13T00:31:52;13.90;99.90
22623;DHT22;11478;51.094;7.030;2022-09-13T00:34:20;13.90;99.90
22623;DHT22;11478;51.094;7.030;2022-09-13T00:36:52;13.90;99.90
22623;DHT22;11478;51.094;7.030;2022-09-13T00:39:18;13.90;99.90
22623;DHT22;11478;51.094;7.030;2022-09-13T00:41:44;13.90;99.90
22623;DHT22;11478;51.094;7.030;2022-09-13T00:50:31;13.90;99.90
22623;DHT22;11478;51.094;7.030;2022-09-13T00:55:48;13.90;99.90
22623;DHT22;11478;51.094;7.030;2022-09-13T00:58:21;13.90;99.90
22623;DHT22;11478;51.094;7.030;2022-09-13T01:00:49;13.90;99.90
22623;DHT22;11478;51.094;7.030;2022-09-13T01:03:17;13.90;99.90
22623;DHT22;11478;51.094;7.030;2022-09-13T01:06:07;13.90;99.90
22623;DHT22;11478;51.094;7.030;2022-09-13T01:08:36;13.90;99.90
22623;DHT22;11478;51.094;7.030;2022-09-13T01:14:11;13.90;99.90
22623;DHT22;11478;51.094;7.030;2022-09-13T01:16:39;14.00;99.90
22623;DHT22;11478;51.094;7.030;2022-09-13T01:19:04;14.00;99.90
22623;DHT22;11478;51.094;7.030;2022-09-13T01:24:30;14.00;99.90
22623;DHT22;11478;51.094;7.030;2022-09-13T01:30:10;14.00;99.90
22623;DHT22;11478;51.094;7.030;2022-09-13T01:39:02;14.00;99.90
22623;DHT22;11478;51.094;7.030;2022-09-13T01:47:30;14.00;99.90
22623;DHT22;11478;51.094;7.030;2022-09-13T01:56:04;14.00;99.90
22623;DHT22;11478;51.094;7.030;2022-09-13T01:58:54;13.90;99.90
22623;DHT22;11478;51.094;7.030;2022-09-13T02:01:31;13.90;99.90
22623;DHT22;11478;51.094;7.030;2022-09-13T02:04:10;13.90;99.90
22623;DHT22;11478;51.094;7.030;2022-09-13T02:07:16;13.90;99.90
22623;DHT22;11478;51.094;7.030;2022-09-13T02:09:34;13.90;99.90
22623;DHT22;11478;51.094;7.030;2022-09-13T02:12:22;13.90;99.90
22623;DHT22;11478;51.094;7.030;2022-09-13T02:15:12;13.90;99.90
22623;DHT22;11478;51.094;7.030;2022-09-13T02:17:49;13.80;99.90
22623;DHT22;11478;51.094;7.030;2022-09-13T02:23:11;13.80;99.90
22623;DHT22;11478;51.094;7.030;2022-09-13T02:25:48;13.80;99.90
22623;DHT22;11478;51.094;7.030;2022-09-13T02:28:22;13.80;99.90
22623;DHT22;11478;51.094;7.030;2022-09-13T02:30:52;13.80;99.90
22623;DHT22;11478;51.094;7.030;2022-09-13T02:33:29;13.70;99.90
22623;DHT22;11478;51.094;7.030;2022-09-13T02:36:15;13.80;99.90
22623;DHT22;11478;51.094;7.030;2022-09-13T02:41:29;13.80;99.90
22623;DHT22;11478;51.094;7.030;2022-09-13T02:49:37;13.80;99.90
22623;DHT22;11478;51.094;7.030;2022-09-13T02:52:17;13.90;99.90
22623;DHT22;11478;51.094;7.030;2022-09-13T03:00:22;13.90;99.90
22623;DHT22;11478;51.094;7.030;2022-09-13T03:02:50;13.90;99.90
22623;DHT22;11478;51.094;7.030;2022-09-13T03:05:20;13.90;99.90
22623;DHT22;11478;51.094;7.030;2022-09-13T03:07:48;14.00;99.90
22623;DHT22;11478;51.094;7.030;2022-09-13T03:10:15;14.00;99.90
22623;DHT22;11478;51.094;7.030;2022-09-13T03:32:37;14.10;99.90
22623;DHT22;11478;51.094;7.030;2022-09-13T03:38:07;14.20;99.90
22623;DHT22;11478;51.094;7.030;2022-09-13T03:43:15;14.20;99.90
22623;DHT22;11478;51.094;7.030;2022-09-13T03:45:59;14.20;99.90
22623;DHT22;11478;51.094;7.030;2022-09-13T03:48:41;14.20;99.90
22623;DHT22;11478;51.094;7.030;2022-09-13T03:51:08;14.20;99.90
22623;DHT22;11478;51.094;7.030;2022-09-13T03:53:39;14.20;99.90
22623;DHT22;11478;51.094;7.030;2022-09-13T03:56:14;14.20;99.90
22623;DHT22;11478;51.094;7.030;2022-09-13T03:58:50;14.30;99.90
22623;DHT22;11478;51.094;7.030;2022-09-13T04:01:20;14.30;99.90
22623;DHT22;11478;51.094;7.030;2022-09-13T04:03:49;14.20;99.90
22623;DHT22;11478;51.094;7.030;2022-09-13T04:06:16;14.20;99.90
22623;DHT22;11478;51.094;7.030;2022-09-13T04:08:48;14.30;99.90
22623;DHT22;11478;51.094;7.030;2022-09-13T04:11:26;14.30;99.90
22623;DHT22;11478;51.094;7.030;2022-09-13T04:14:13;14.20;99.90
22623;DHT22;11478;51.094;7.030;2022-09-13T04:16:40;14.30;99.90
22623;DHT22;11478;51.094;7.030;2022-09-13T04:19:12;14.30;99.90
22623;DHT22;11478;51.094;7.030;2022-09-13T04:21:52;14.30;99.90
22623;DHT22;11478;51.094;7.030;2022-09-13T04:24:19;14.30;99.90
22623;DHT22;11478;51.094;7.030;2022-09-13T04:26:49;14.30;99.90
22623;DHT22;11478;51.094;7.030;2022-09-13T04:29:16;14.30;99.90
22623;DHT22;11478;51.094;7.030;2022-09-13T04:31:45;14.30;99.90
22623;DHT22;11478;51.094;7.030;2022-09-13T04:34:14;14.30;99.90
22623;DHT22;11478;51.094;7.030;2022-09-13T04:36:40;14.30;99.90
22623;DHT22;11478;51.094;7.030;2022-09-13T04:42:27;14.40;99.90
22623;DHT22;11478;51.094;7.030;2022-09-13T04:45:03;14.40;99.90
22623;DHT22;11478;51.094;7.030;2022-09-13T04:47:49;14.40;99.90
22623;DHT22;11478;51.094;7.030;2022-09-13T04:50:25;14.40;99.90
22623;DHT22;11478;51.094;7.030;2022-09-13T04:53:15;14.40;99.90
22623;DHT22;11478;51.094;7.030;2022-09-13T04:55:42;14.40;99.90
22623;DHT22;11478;51.094;7.030;2022-09-13T04:58:08;14.40;99.90
22623;DHT22;11478;51.094;7.030;2022-09-13T05:00:35;14.40;99.90
22623;DHT22;11478;51.094;7.030;2022-09-13T05:03:01;14.40;99.90
22623;DHT22;11478;51.094;7.030;2022-09-13T05:05:27;14.40;99.90
22623;DHT22;11478;51.094;7.030;2022-09-13T05:08:00;14.40;99.90
22623;DHT22;11478;51.094;7.030;2022-09-13T05:10:26;14.40;99.90
22623;DHT22;11478;51.094;7.030;2022-09-13T05:12:53;14.40;99.90
22623;DHT22;11478;51.094;7.030;2022-09-13T05:15:20;14.40;99.90
22623;DHT22;11478;51.094;7.030;2022-09-13T05:17:46;14.40;99.90
22623;DHT22;11478;51.094;7.030;2022-09-13T05:20:11;14.50;99.90
22623;DHT22;11478;51.094;7.030;2022-09-13T05:22:41;14.50;99.90
22623;DHT22;11478;51.094;7.030;2022-09-13T05:25:07;14.50;99.90
22623;DHT22;11478;51.094;7.030;2022-09-13T05:27:33;14.50;99.90
22623;DHT22;11478;51.094;7.030;2022-09-13T05:29:59;14.50;99.90
22623;DHT22;11478;51.094;7.030;2022-09-13T05:32:26;14.50;99.90
22623;DHT22;11478;51.094;7.030;2022-09-13T05:34:52;14.50;99.90
22623;DHT22;11478;51.094;7.030;2022-09-13T05:37:21;14.50;99.90
22623;DHT22;11478;51.094;7.030;2022-09-13T05:39:47;14.50;99.90
22623;DHT22;11478;51.094;7.030;2022-09-13T05:42:41;14.50;99.90
22623;DHT22;11478;51.094;7.030;2022-09-13T05:45:08;14.50;99.90
22623;DHT22;11478;51.094;7.030;2022-09-13T05:47:35;14.50;99.90
22623;DHT22;11478;51.094;7.030;2022-09-13T05:50:03;14.50;99.90
22623;DHT22;11478;51.094;7.030;2022-09-13T05:52:30;14.50;99.90
22623;DHT22;11478;51.094;7.030;2022-09-13T05:54:56;14.50;99.90
22623;DHT22;11478;51.094;7.030;2022-09-13T05:57:24;14.60;99.90
22623;DHT22;11478;51.094;7.030;2022-09-13T05:59:50;14.60;99.90
22623;DHT22;11478;51.094;7.030;2022-09-13T06:02:21;14.60;99.90
22623;DHT22;11478;51.094;7.030;2022-09-13T06:04:47;14.60;99.90
22623;DHT22;11478;51.094;7.030;2022-09-13T06:07:17;14.70;99.90
22623;DHT22;11478;51.094;7.030;2022-09-13T06:09:46;14.70;99.90
22623;DHT22;11478;51.094;7.030;2022-09-13T06:12:13;14.70;99.90
22623;DHT22;11478;51.094;7.030;2022-09-13T06:14:38;14.70;99.90
22623;DHT22;11478;51.094;7.030;2022-09-13T06:17:04;14.70;99.90
22623;DHT22;11478;51.094;7.030;2022-09-13T06:19:30;14.80;99.90
22623;DHT22;11478;51.094;7.030;2022-09-13T06:22:05;14.80;99.90
22623;DHT22;11478;51.094;7.030;2022-09-13T06:24:31;14.90;99.90
22623;DHT22;11478;51.094;7.030;2022-09-13T06:26:57;14.90;99.90
22623;DHT22;11478;51.094;7.030;2022-09-13T06:29:23;14.90;99.90
22623;DHT22;11478;51.094;7.030;2022-09-13T06:31:49;15.00;99.90
22623;DHT22;11478;51.094;7.030;2022-09-13T06:34:15;15.00;99.90
22623;DHT22;11478;51.094;7.030;2022-09-13T06:36:42;15.00;99.90
22623;DHT22;11478;51.094;7.030;2022-09-13T06:39:09;15.10;99.90
22623;DHT22;11478;51.094;7.030;2022-09-13T06:41:35;15.10;99.90
22623;DHT22;11478;51.094;7.030;2022-09-13T06:44:02;15.20;99.90
22623;DHT22;11478;51.094;7.030;2022-09-13T06:46:30;15.20;99.90
22623;DHT22;11478;51.094;7.030;2022-09-13T06:49:03;15.20;99.90
22623;DHT22;11478;51.094;7.030;2022-09-13T06:51:32;15.20;99.90
22623;DHT22;11478;51.094;7.030;2022-09-13T06:53:59;15.30;99.90
22623;DHT22;11478;51.094;7.030;2022-09-13T06:56:34;15.30;99.90
22623;DHT22;11478;51.094;7.030;2022-09-13T06:59:06;15.40;99.90
22623;DHT22;11478;51.094;7.030;2022-09-13T07:01:35;15.40;99.90
22623;DHT22;11478;51.094;7.030;2022-09-13T07:04:04;15.50;99.90
22623;DHT22;11478;51.094;7.030;2022-09-13T07:06:32;15.50;99.90
22623;DHT22;11478;51.094;7.030;2022-09-13T07:08:59;15.50;99.90
22623;DHT22;11478;51.094;7.030;2022-09-13T07:11:32;15.60;99.90
22623;DHT22;11478;51.094;7.030;2022-09-13T07:13:59;15.60;99.90
22623;DHT22;11478;51.094;7.030;2022-09-13T07:16:30;15.70;99.90
22623;DHT22;11478;51.094;7.030;2022-09-13T07:19:01;15.70;99.90
22623;DHT22;11478;51.094;7.030;2022-09-13T07:24:51;15.80;99.90
22623;DHT22;11478;51.094;7.030;2022-09-13T07:27:17;15.80;99.90
22623;DHT22;11478;51.094;7.030;2022-09-13T07:29:42;15.90;99.90
22623;DHT22;11478;51.094;7.030;2022-09-13T07:32:08;15.90;99.90
22623;DHT22;11478;51.094;7.030;2022-09-13T07:34:35;16.00;99.90
22623;DHT22;11478;51.094;7.030;2022-09-13T07:37:01;16.00;99.90
22623;DHT22;11478;51.094;7.030;2022-09-13T07:39:27;16.10;99.90
22623;DHT22;11478;51.094;7.030;2022-09-13T07:41:53;16.20;99.90
22623;DHT22;11478;51.094;7.030;2022-09-13T07:47:11;16.30;99.90
22623;DHT22;11478;51.094;7.030;2022-09-13T07:49:38;16.40;99.90
22623;DHT22;11478;51.094;7.030;2022-09-13T07:52:04;16.50;99.90
22623;DHT22;11478;51.094;7.030;2022-09-13T07:54:31;16.50;99.90
22623;DHT22;11478;51.094;7.030;2022-09-13T07:56:59;16.60;99.90
22623;DHT22;11478;51.094;7.030;2022-09-13T07:59:24;16.70;99.90
22623;DHT22;11478;51.094;7.030;2022-09-13T08:01:50;16.80;99.90
22623;DHT22;11478;51.094;7.030;2022-09-13T08:04:18;16.80;99.90
22623;DHT22;11478;51.094;7.030;2022-09-13T08:06:48;16.90;99.90
22623;DHT22;11478;51.094;7.030;2022-09-13T08:09:15;17.00;99.90
22623;DHT22;11478;51.094;7.030;2022-09-13T08:11:52;17.10;99.90
22623;DHT22;11478;51.094;7.030;2022-09-13T08:14:20;17.20;99.90
22623;DHT22;11478;51.094;7.030;2022-09-13T08:16:49;17.30;99.90
22623;DHT22;11478;51.094;7.030;2022-09-13T08:19:19;17.40;99.90
22623;DHT22;11478;51.094;7.030;2022-09-13T08:21:54;17.50;99.90
22623;DHT22;11478;51.094;7.030;2022-09-13T08:24:28;17.60;99.90
22623;DHT22;11478;51.094;7.030;2022-09-13T08:26:56;17.60;99.90
22623;DHT22;11478;51.094;7.030;2022-09-13T08:29:21;17.70;99.90
22623;DHT22;11478;51.094;7.030;2022-09-13T08:31:54;17.80;99.90
22623;DHT22;11478;51.094;7.030;2022-09-13T08:34:20;17.90;99.90
22623;DHT22;11478;51.094;7.030;2022-09-13T08:36:49;17.90;99.90
22623;DHT22;11478;51.094;7.030;2022-09-13T08:39:15;18.00;99.90
22623;DHT22;11478;51.094;7.030;2022-09-13T08:41:50;18.00;99.90
22623;DHT22;11478;51.094;7.030;2022-09-13T08:44:32;18.10;99.90
22623;DHT22;11478;51.094;7.030;2022-09-13T08:47:03;18.30;99.90
22623;DHT22;11478;51.094;7.030;2022-09-13T08:49:43;18.40;99.90
22623;DHT22;11478;51.094;7.030;2022-09-13T08:52:15;18.50;99.90
22623;DHT22;11478;51.094;7.030;2022-09-13T08:54:54;18.70;99.90
22623;DHT22;11478;51.094;7.030;2022-09-13T09:00:11;19.00;99.90
22623;DHT22;11478;51.094;7.030;2022-09-13T09:05:30;19.20;99.90
22623;DHT22;11478;51.094;7.030;2022-09-13T09:08:04;19.30;99.90
22623;DHT22;11478;51.094;7.030;2022-09-13T09:10:52;19.30;99.90
22623;DHT22;11478;51.094;7.030;2022-09-13T09:13:30;19.30;99.90
22623;DHT22;11478;51.094;7.030;2022-09-13T09:16:26;19.30;99.90
22623;DHT22;11478;51.094;7.030;2022-09-13T09:19:05;19.30;99.90
22623;DHT22;11478;51.094;7.030;2022-09-13T09:21:41;19.30;99.90
22623;DHT22;11478;51.094;7.030;2022-09-13T09:24:18;19.30;99.90
22623;DHT22;11478;51.094;7.030;2022-09-13T09:26:45;19.30;99.90
22623;DHT22;11478;51.094;7.030;2022-09-13T09:29:24;19.30;99.90
22623;DHT22;11478;51.094;7.030;2022-09-13T09:34:43;19.40;99.90
22623;DHT22;11478;51.094;7.030;2022-09-13T09:37:22;19.50;99.90
22623;DHT22;11478;51.094;7.030;2022-09-13T09:39:59;19.50;99.90
22623;DHT22;11478;51.094;7.030;2022-09-13T09:42:29;19.60;99.90
22623;DHT22;11478;51.094;7.030;2022-09-13T09:45:03;19.60;99.90
22623;DHT22;11478;51.094;7.030;2022-09-13T09:47:43;19.70;99.90
22623;DHT22;11478;51.094;7.030;2022-09-13T09:50:14;19.90;99.90
22623;DHT22;11478;51.094;7.030;2022-09-13T09:53:11;20.10;99.90
22623;DHT22;11478;51.094;7.030;2022-09-13T09:55:47;20.20;99.90
22623;DHT22;11478;51.094;7.030;2022-09-13T09:58:16;20.30;99.90
22623;DHT22;11478;51.094;7.030;2022-09-13T10:00:57;20.40;99.90
22623;DHT22;11478;51.094;7.030;2022-09-13T10:03:32;20.50;99.90
22623;DHT22;11478;51.094;7.030;2022-09-13T10:06:17;21.00;99.90
22623;DHT22;11478;51.094;7.030;2022-09-13T10:08:47;21.30;99.90
22623;DHT22;11478;51.094;7.030;2022-09-13T10:11:23;21.40;99.90
22623;DHT22;11478;51.094;7.030;2022-09-13T10:14:04;21.40;99.90
22623;DHT22;11478;51.094;7.030;2022-09-13T10:16:32;21.40;99.90
22623;DHT22;11478;51.094;7.030;2022-09-13T10:19:25;21.30;99.90
22623;DHT22;11478;51.094;7.030;2022-09-13T10:22:03;21.20;99.90
22623;DHT22;11478;51.094;7.030;2022-09-13T10:24:32;21.20;99.90
22623;DHT22;11478;51.094;7.030;2022-09-13T10:26:59;21.10;99.90
22623;DHT22;11478;51.094;7.030;2022-09-13T10:29:32;21.10;99.90
22623;DHT22;11478;51.094;7.030;2022-09-13T10:32:12;21.10;99.90
22623;DHT22;11478;51.094;7.030;2022-09-13T10:34:42;21.10;99.90
22623;DHT22;11478;51.094;7.030;2022-09-13T10:37:38;21.10;99.90
22623;DHT22;11478;51.094;7.030;2022-09-13T10:40:18;21.10;99.90
22623;DHT22;11478;51.094;7.030;2022-09-13T10:42:53;21.10;99.90
22623;DHT22;11478;51.094;7.030;2022-09-13T10:45:26;21.10;99.90
22623;DHT22;11478;51.094;7.030;2022-09-13T10:48:20;21.20;99.90
22623;DHT22;11478;51.094;7.030;2022-09-13T10:54:17;21.40;99.90
22623;DHT22;11478;51.094;7.030;2022-09-13T10:57:09;21.50;99.90
22623;DHT22;11478;51.094;7.030;2022-09-13T11:00:06;21.60;99.90
22623;DHT22;11478;51.094;7.030;2022-09-13T11:05:25;21.60;99.90
22623;DHT22;11478;51.094;7.030;2022-09-13T11:14:12;21.50;99.90
22623;DHT22;11478;51.094;7.030;2022-09-13T11:20:09;21.50;99.90
22623;DHT22;11478;51.094;7.030;2022-09-13T11:25:50;21.50;99.90
22623;DHT22;11478;51.094;7.030;2022-09-13T11:32:05;21.50;99.90
22623;DHT22;11478;51.094;7.030;2022-09-13T11:34:58;21.50;99.90
22623;DHT22;11478;51.094;7.030;2022-09-13T11:52:10;21.70;99.90
22623;DHT22;11478;51.094;7.030;2022-09-13T11:57:40;21.80;99.90
22623;DHT22;11478;51.094;7.030;2022-09-13T12:05:34;22.00;99.90
22623;DHT22;11478;51.094;7.030;2022-09-13T12:11:18;22.00;99.90
22623;DHT22;11478;51.094;7.030;2022-09-13T12:13:55;22.10;99.90
22623;DHT22;11478;51.094;7.030;2022-09-13T12:16:57;22.30;99.90
22623;DHT22;11478;51.094;7.030;2022-09-13T12:19:53;22.30;99.90
22623;DHT22;11478;51.094;7.030;2022-09-13T12:22:23;22.40;99.90
22623;DHT22;11478;51.094;7.030;2022-09-13T12:24:54;22.40;99.90
22623;DHT22;11478;51.094;7.030;2022-09-13T12:27:44;22.50;99.90
22623;DHT22;11478;51.094;7.030;2022-09-13T12:30:21;22.60;99.90
22623;DHT22;11478;51.094;7.030;2022-09-13T12:32:50;22.60;99.90
22623;DHT22;11478;51.094;7.030;2022-09-13T12:35:38;22.70;99.90
22623;DHT22;11478;51.094;7.030;2022-09-13T13:00:48;23.60;99.90
22623;DHT22;11478;51.094;7.030;2022-09-13T13:03:41;23.50;99.90
22623;DHT22;11478;51.094;7.030;2022-09-13T13:09:05;23.40;99.90
22623;DHT22;11478;51.094;7.030;2022-09-13T13:11:48;23.40;99.90
22623;DHT22;11478;51.094;7.030;2022-09-13T13:17:49;23.30;99.90
22623;DHT22;11478;51.094;7.030;2022-09-13T13:23:37;23.40;99.90
22623;DHT22;11478;51.094;7.030;2022-09-13T13:31:55;23.60;99.90
22623;DHT22;11478;51.094;7.030;2022-09-13T13:37:37;23.70;99.90
22623;DHT22;11478;51.094;7.030;2022-09-13T13:40:24;23.70;99.90
22623;DHT22;11478;51.094;7.030;2022-09-13T13:43:42;23.60;99.90
22623;DHT22;11478;51.094;7.030;2022-09-13T13:45:58;23.50;99.90
22623;DHT22;11478;51.094;7.030;2022-09-13T13:48:43;23.50;99.90
22623;DHT22;11478;51.094;7.030;2022-09-13T13:51:18;23.50;99.90
22623;DHT22;11478;51.094;7.030;2022-09-13T13:54:01;23.40;99.90
22623;DHT22;11478;51.094;7.030;2022-09-13T13:56:53;23.40;99.90
22623;DHT22;11478;51.094;7.030;2022-09-13T14:00:19;23.30;99.90
22623;DHT22;11478;51.094;7.030;2022-09-13T14:47:23;23.10;99.90
22623;DHT22;11478;51.094;7.030;2022-09-13T14:50:14;23.20;99.90
22623;DHT22;11478;51.094;7.030;2022-09-13T14:52:57;23.20;99.90
22623;DHT22;11478;51.094;7.030;2022-09-13T14:55:34;23.20;99.90
22623;DHT22;11478;51.094;7.030;2022-09-13T14:58:06;23.10;99.90
22623;DHT22;11478;51.094;7.030;2022-09-13T15:00:54;23.10;99.90
22623;DHT22;11478;51.094;7.030;2022-09-13T15:03:47;23.10;99.90
22623;DHT22;11478;51.094;7.030;2022-09-13T15:11:59;23.30;99.90
22623;DHT22;11478;51.094;7.030;2022-09-13T15:14:36;23.40;99.90
22623;DHT22;11478;51.094;7.030;2022-09-13T15:17:09;23.50;99.90
22623;DHT22;11478;51.094;7.030;2022-09-13T15:45:58;23.00;99.90
22623;DHT22;11478;51.094;7.030;2022-09-13T15:48:29;22.80;99.90
22623;DHT22;11478;51.094;7.030;2022-09-13T15:51:13;22.60;99.90
22623;DHT22;11478;51.094;7.030;2022-09-13T15:53:42;22.50;99.90
22623;DHT22;11478;51.094;7.030;2022-09-13T15:56:18;22.30;99.90
22623;DHT22;11478;51.094;7.030;2022-09-13T15:58:44;22.20;99.90
22623;DHT22;11478;51.094;7.030;2022-09-13T16:01:17;22.10;99.90
22623;DHT22;11478;51.094;7.030;2022-09-13T16:03:45;22.00;99.90
22623;DHT22;11478;51.094;7.030;2022-09-13T16:06:11;21.90;99.90
22623;DHT22;11478;51.094;7.030;2022-09-13T16:08:38;21.80;99.90
22623;DHT22;11478;51.094;7.030;2022-09-13T16:11:08;21.80;99.90
22623;DHT22;11478;51.094;7.030;2022-09-13T16:13:35;21.60;99.90
22623;DHT22;11478;51.094;7.030;2022-09-13T16:16:05;21.60;99.90
22623;DHT22;11478;51.094;7.030;2022-09-13T16:18:31;21.50;99.90
22623;DHT22;11478;51.094;7.030;2022-09-13T16:20:58;21.50;99.90
22623;DHT22;11478;51.094;7.030;2022-09-13T16:23:26;21.40;99.90
22623;DHT22;11478;51.094;7.030;2022-09-13T16:25:58;21.30;99.90
22623;DHT22;11478;51.094;7.030;2022-09-13T16:28:24;21.30;99.90
22623;DHT22;11478;51.094;7.030;2022-09-13T16:30:51;21.20;99.90
22623;DHT22;11478;51.094;7.030;2022-09-13T16:33:22;21.20;99.90
22623;DHT22;11478;51.094;7.030;2022-09-13T16:35:51;21.10;99.90
22623;DHT22;11478;51.094;7.030;2022-09-13T16:38:17;21.10;99.90
22623;DHT22;11478;51.094;7.030;2022-09-13T16:40:43;21.00;99.90
22623;DHT22;11478;51.094;7.030;2022-09-13T16:43:09;21.00;99.90
22623;DHT22;11478;51.094;7.030;2022-09-13T16:45:39;20.90;99.90
22623;DHT22;11478;51.094;7.030;2022-09-13T16:48:08;20.90;99.90
22623;DHT22;11478;51.094;7.030;2022-09-13T16:50:40;20.80;99.90
22623;DHT22;11478;51.094;7.030;2022-09-13T16:53:06;20.70;99.90
22623;DHT22;11478;51.094;7.030;2022-09-13T16:55:32;20.70;99.90
22623;DHT22;11478;51.094;7.030;2022-09-13T16:57:58;20.70;99.90
22623;DHT22;11478;51.094;7.030;2022-09-13T17:00:24;20.60;99.90
22623;DHT22;11478;51.094;7.030;2022-09-13T17:02:54;20.50;99.90
22623;DHT22;11478;51.094;7.030;2022-09-13T17:05:21;20.50;99.90
22623;DHT22;11478;51.094;7.030;2022-09-13T17:07:58;20.40;99.90
22623;DHT22;11478;51.094;7.030;2022-09-13T17:10:39;20.40;99.90
22623;DHT22;11478;51.094;7.030;2022-09-13T17:13:07;20.30;99.90
22623;DHT22;11478;51.094;7.030;2022-09-13T17:15:46;20.20;99.90
22623;DHT22;11478;51.094;7.030;2022-09-13T17:18:14;20.20;99.90
22623;DHT22;11478;51.094;7.030;2022-09-13T17:21:07;20.10;99.90
22623;DHT22;11478;51.094;7.030;2022-09-13T17:23:33;20.10;99.90
22623;DHT22;11478;51.094;7.030;2022-09-13T17:26:02;20.10;99.90
22623;DHT22;11478;51.094;7.030;2022-09-13T17:28:28;20.00;99.90
22623;DHT22;11478;51.094;7.030;2022-09-13T17:30:55;20.00;99.90
22623;DHT22;11478;51.094;7.030;2022-09-13T17:33:21;19.90;99.90
22623;DHT22;11478;51.094;7.030;2022-09-13T17:36:01;19.80;99.90
22623;DHT22;11478;51.094;7.030;2022-09-13T17:38:30;19.80;99.90
22623;DHT22;11478;51.094;7.030;2022-09-13T17:41:23;19.70;99.90
22623;DHT22;11478;51.094;7.030;2022-09-13T17:43:50;19.70;99.90
22623;DHT22;11478;51.094;7.030;2022-09-13T17:46:19;19.60;99.90
22623;DHT22;11478;51.094;7.030;2022-09-13T17:48:56;19.60;99.90
22623;DHT22;11478;51.094;7.030;2022-09-13T17:51:28;19.50;99.90
22623;DHT22;11478;51.094;7.030;2022-09-13T17:54:05;19.50;99.90
22623;DHT22;11478;51.094;7.030;2022-09-13T17:56:33;19.50;99.90
22623;DHT22;11478;51.094;7.030;2022-09-13T17:59:16;19.40;99.90
22623;DHT22;11478;51.094;7.030;2022-09-13T18:05:01;19.30;99.90
22623;DHT22;11478;51.094;7.030;2022-09-13T18:07:59;19.30;99.90
22623;DHT22;11478;51.094;7.030;2022-09-13T18:11:08;19.20;99.90
22623;DHT22;11478;51.094;7.030;2022-09-13T18:14:08;19.20;99.90
22623;DHT22;11478;51.094;7.030;2022-09-13T18:16:50;19.10;99.90
22623;DHT22;11478;51.094;7.030;2022-09-13T18:19:22;19.10;99.90
22623;DHT22;11478;51.094;7.030;2022-09-13T18:21:55;19.10;99.90
22623;DHT22;11478;51.094;7.030;2022-09-13T18:24:21;19.00;99.90
22623;DHT22;11478;51.094;7.030;2022-09-13T18:26:51;19.00;99.90
22623;DHT22;11478;51.094;7.030;2022-09-13T18:29:17;18.90;99.90
22623;DHT22;11478;51.094;7.030;2022-09-13T18:31:44;18.90;99.90
22623;DHT22;11478;51.094;7.030;2022-09-13T18:34:12;18.90;99.90
22623;DHT22;11478;51.094;7.030;2022-09-13T18:36:42;18.90;99.90
22623;DHT22;11478;51.094;7.030;2022-09-13T18:39:18;18.90;99.90
22623;DHT22;11478;51.094;7.030;2022-09-13T18:41:44;18.80;99.90
22623;DHT22;11478;51.094;7.030;2022-09-13T18:44:12;18.80;99.90
22623;DHT22;11478;51.094;7.030;2022-09-13T18:46:39;18.80;99.90
22623;DHT22;11478;51.094;7.030;2022-09-13T18:49:05;18.80;99.90
22623;DHT22;11478;51.094;7.030;2022-09-13T18:51:41;18.80;99.90
22623;DHT22;11478;51.094;7.030;2022-09-13T18:54:25;18.70;99.90
22623;DHT22;11478;51.094;7.030;2022-09-13T18:56:52;18.70;99.90
22623;DHT22;11478;51.094;7.030;2022-09-13T18:59:18;18.70;99.90
22623;DHT22;11478;51.094;7.030;2022-09-13T19:01:46;18.70;99.90
22623;DHT22;11478;51.094;7.030;2022-09-13T19:04:18;18.70;99.90
22623;DHT22;11478;51.094;7.030;2022-09-13T19:06:45;18.60;99.90
22623;DHT22;11478;51.094;7.030;2022-09-13T19:09:11;18.60;99.90
22623;DHT22;11478;51.094;7.030;2022-09-13T19:11:45;18.60;99.90
22623;DHT22;11478;51.094;7.030;2022-09-13T19:14:21;18.60;99.90
22623;DHT22;11478;51.094;7.030;2022-09-13T19:16:51;18.50;99.90
22623;DHT22;11478;51.094;7.030;2022-09-13T19:19:18;18.50;99.90
22623;DHT22;11478;51.094;7.030;2022-09-13T19:21:45;18.50;99.90
22623;DHT22;11478;51.094;7.030;2022-09-13T19:24:11;18.50;99.90
22623;DHT22;11478;51.094;7.030;2022-09-13T19:26:40;18.50;99.90
22623;DHT22;11478;51.094;7.030;2022-09-13T19:29:11;18.50;99.90
22623;DHT22;11478;51.094;7.030;2022-09-13T19:31:40;18.50;99.90
22623;DHT22;11478;51.094;7.030;2022-09-13T19:34:06;18.50;99.90
22623;DHT22;11478;51.094;7.030;2022-09-13T19:36:37;18.50;99.90
22623;DHT22;11478;51.094;7.030;2022-09-13T19:39:05;18.50;99.90
22623;DHT22;11478;51.094;7.030;2022-09-13T19:41:32;18.40;99.90
22623;DHT22;11478;51.094;7.030;2022-09-13T19:43:59;18.50;99.90
22623;DHT22;11478;51.094;7.030;2022-09-13T19:46:28;18.40;99.90
22623;DHT22;11478;51.094;7.030;2022-09-13T19:48:56;18.40;99.90
22623;DHT22;11478;51.094;7.030;2022-09-13T19:51:25;18.40;99.90
22623;DHT22;11478;51.094;7.030;2022-09-13T19:53:53;18.40;99.90
22623;DHT22;11478;51.094;7.030;2022-09-13T19:56:22;18.40;99.90
22623;DHT22;11478;51.094;7.030;2022-09-13T19:58:49;18.40;99.90
22623;DHT22;11478;51.094;7.030;2022-09-13T20:01:23;18.40;99.90
22623;DHT22;11478;51.094;7.030;2022-09-13T20:03:54;18.40;99.90
22623;DHT22;11478;51.094;7.030;2022-09-13T20:06:27;18.40;99.90
22623;DHT22;11478;51.094;7.030;2022-09-13T20:08:57;18.40;99.90
22623;DHT22;11478;51.094;7.030;2022-09-13T20:11:26;18.40;99.90
22623;DHT22;11478;51.094;7.030;2022-09-13T20:13:54;18.40;99.90
22623;DHT22;11478;51.094;7.030;2022-09-13T20:16:24;18.40;99.90
22623;DHT22;11478;51.094;7.030;2022-09-13T20:18:51;18.40;99.90
22623;DHT22;11478;51.094;7.030;2022-09-13T20:21:18;18.40;99.90
22623;DHT22;11478;51.094;7.030;2022-09-13T20:23:44;18.40;99.90
22623;DHT22;11478;51.094;7.030;2022-09-13T20:26:20;18.40;99.90
22623;DHT22;11478;51.094;7.030;2022-09-13T20:28:46;18.40;99.90
22623;DHT22;11478;51.094;7.030;2022-09-13T20:31:16;18.40;99.90